createdAt,value
2022-10-01T00:00:08.915Z,69.96
2022-10-01T00:03:02.641Z,70.51
2022-10-01T00:05:34.735Z,70.30
2022-10-01T00:08:06.667Z,70.31
2022-10-01T00:10:41.993Z,70.07
2022-10-01T00:13:14.003Z,69.89
2022-10-01T00:15:46.553Z,69.89
2022-10-01T00:18:18.847Z,70.41
2022-10-01T00:20:50.867Z,69.90
2022-10-01T00:23:23.301Z,69.87
2022-10-01T00:25:55.196Z,70.06
2022-10-01T00:28:27.631Z,69.64
2022-10-01T00:30:59.990Z,69.33
2022-10-01T00:33:32.970Z,69.45
2022-10-01T00:36:08.227Z,69.40
2022-10-01T00:38:41.686Z,69.68
2022-10-01T00:41:14.029Z,70.10
2022-10-01T00:43:49.468Z,69.63
2022-10-01T00:46:26.277Z,70.84
2022-10-01T00:49:03.409Z,70.61
2022-10-01T00:51:39.808Z,70.59
2022-10-01T00:54:16.542Z,70.47
2022-10-01T00:56:51.857Z,70.14
2022-10-01T00:59:24.364Z,70.06
2022-10-01T01:01:56.863Z,70.55
2022-10-01T01:04:29.038Z,71.19
2022-10-01T01:07:03.956Z,71.43
2022-10-01T01:09:38.552Z,71.36
2022-10-01T01:12:20.190Z,71.22
2022-10-01T01:14:59.437Z,71.44
2022-10-01T01:17:39.694Z,71.64
2022-10-01T01:20:28.873Z,71.66
2022-10-01T01:23:14.132Z,71.66
2022-10-01T01:25:50.285Z,72.41
2022-10-01T01:28:31.836Z,73.23
2022-10-01T01:31:08.756Z,73.58
2022-10-01T01:33:45.050Z,73.63
2022-10-01T01:36:21.864Z,73.64
2022-10-01T01:38:57.144Z,73.76
2022-10-01T01:41:35.413Z,74.04
2022-10-01T01:44:13.741Z,74.20
2022-10-01T01:46:49.567Z,74.63
2022-10-01T01:49:22.507Z,74.70
2022-10-01T01:52:01.421Z,74.86
2022-10-01T01:54:35.822Z,75.82
2022-10-01T01:57:09.587Z,75.57
2022-10-01T01:59:42.529Z,75.23
2022-10-01T02:02:18.696Z,74.92
2022-10-01T02:04:56.509Z,75.14
2022-10-01T02:07:48.875Z,75.89
2022-10-01T02:10:35.214Z,76.17
2022-10-01T02:13:24.265Z,76.13
2022-10-01T02:16:06.105Z,75.79
2022-10-01T02:18:48.347Z,75.88
2022-10-01T02:21:27.475Z,75.62
2022-10-01T02:24:03.966Z,75.30
2022-10-01T02:26:40.515Z,75.48
2022-10-01T02:29:17.272Z,75.29
2022-10-01T02:31:55.736Z,75.11
2022-10-01T02:34:32.300Z,75.14
2022-10-01T02:37:08.446Z,75.04
2022-10-01T02:39:42.148Z,75.44
2022-10-01T02:42:16.839Z,75.35
2022-10-01T02:44:48.186Z,75.42
2022-10-01T02:47:24.561Z,75.82
2022-10-01T02:49:57.032Z,75.51
2022-10-01T02:52:36.141Z,75.23
2022-10-01T02:55:12.654Z,74.88
2022-10-01T02:57:45.008Z,74.71
2022-10-01T03:00:21.503Z,74.79
2022-10-01T03:02:53.744Z,75.10
2022-10-01T03:05:26.441Z,75.48
2022-10-01T03:07:58.393Z,75.09
2022-10-01T03:10:30.903Z,75.87
2022-10-01T03:13:02.765Z,75.85
2022-10-01T03:15:34.889Z,75.63
2022-10-01T03:18:06.882Z,75.43
2022-10-01T03:20:39.292Z,75.13
2022-10-01T03:23:11.522Z,75.01
2022-10-01T03:25:43.815Z,74.96
2022-10-01T03:28:16.700Z,74.85
2022-10-01T03:30:48.690Z,74.93
2022-10-01T03:33:20.801Z,75.50
2022-10-01T03:35:53.609Z,75.32
2022-10-01T03:38:25.467Z,75.75
2022-10-01T03:40:57.631Z,75.85
2022-10-01T03:43:30.537Z,75.75
2022-10-01T03:46:03.097Z,75.63
2022-10-01T03:48:35.098Z,75.53
2022-10-01T03:51:07.683Z,75.20
2022-10-01T03:53:39.933Z,75.08
2022-10-01T03:56:12.551Z,75.18
2022-10-01T03:58:44.589Z,75.29
2022-10-01T04:01:17.060Z,75.19
2022-10-01T04:03:49.281Z,75.07
2022-10-01T04:06:21.867Z,75.02
2022-10-01T04:08:54.106Z,75.05
2022-10-01T04:11:26.059Z,74.81
2022-10-01T04:13:58.671Z,74.94
2022-10-01T04:16:31.828Z,74.84
2022-10-01T04:19:04.238Z,74.85
2022-10-01T04:21:37.150Z,75.11
2022-10-01T04:24:09.656Z,74.97
2022-10-01T04:26:42.271Z,74.55
2022-10-01T04:29:14.446Z,74.64
2022-10-01T04:31:47.123Z,74.49
2022-10-01T04:34:19.480Z,74.18
2022-10-01T04:36:52.186Z,74.59
2022-10-01T04:39:25.101Z,75.04
2022-10-01T04:41:57.660Z,74.90
2022-10-01T04:44:31.388Z,74.26
2022-10-01T04:47:03.731Z,73.78
2022-10-01T04:49:36.192Z,73.46
2022-10-01T04:52:09.245Z,73.22
2022-10-01T04:54:41.924Z,72.69
2022-10-01T04:57:14.313Z,72.17
2022-10-01T04:59:46.688Z,71.85
2022-10-01T05:02:19.552Z,71.73
2022-10-01T05:04:51.849Z,71.78
2022-10-01T05:07:23.991Z,71.79
2022-10-01T05:09:55.932Z,71.79
2022-10-01T05:12:28.551Z,72.26
2022-10-01T05:15:02.222Z,72.61
2022-10-01T05:17:34.641Z,72.74
2022-10-01T05:20:11.509Z,72.78
2022-10-01T05:22:44.144Z,72.40
2022-10-01T05:25:17.570Z,72.47
2022-10-01T05:27:49.831Z,72.25
2022-10-01T05:30:24.403Z,72.37
2022-10-01T05:33:02.298Z,73.08
2022-10-01T05:35:35.065Z,73.76
2022-10-01T05:38:07.600Z,74.03
2022-10-01T05:40:39.661Z,74.38
2022-10-01T05:43:12.255Z,74.92
2022-10-01T05:45:44.279Z,75.42
2022-10-01T05:48:17.548Z,75.91
2022-10-01T05:50:50.029Z,76.19
2022-10-01T05:53:22.584Z,76.27
2022-10-01T05:55:54.824Z,76.31
2022-10-01T05:58:27.511Z,76.31
2022-10-01T06:00:59.774Z,76.86
2022-10-01T06:03:32.196Z,77.23
2022-10-01T06:06:05.487Z,77.65
2022-10-01T06:08:38.902Z,77.68
2022-10-01T06:11:12.217Z,77.47
2022-10-01T06:13:46.890Z,77.16
2022-10-01T06:16:17.524Z,77.25
2022-10-01T06:18:49.862Z,77.50
2022-10-01T06:21:21.968Z,77.82
2022-10-01T06:23:55.771Z,77.73
2022-10-01T06:26:28.343Z,77.67
2022-10-01T06:29:03.628Z,77.60
2022-10-01T06:31:35.963Z,78.00
2022-10-01T06:34:08.553Z,78.03
2022-10-01T06:36:40.514Z,78.36
2022-10-01T06:39:12.570Z,78.11
2022-10-01T06:41:44.650Z,78.05
2022-10-01T06:44:20.702Z,77.78
2022-10-01T06:46:54.190Z,77.54
2022-10-01T06:49:26.837Z,77.84
2022-10-01T06:52:17.167Z,77.58
2022-10-01T06:54:49.830Z,78.21
2022-10-01T06:57:22.176Z,78.18
2022-10-01T06:59:54.324Z,77.85
2022-10-01T07:02:30.222Z,78.20
2022-10-01T07:05:02.488Z,77.46
2022-10-01T07:07:35.587Z,77.41
2022-10-01T07:10:09.990Z,77.39
2022-10-01T07:12:42.233Z,77.43
2022-10-01T07:15:14.770Z,77.13
2022-10-01T07:17:51.506Z,75.85
2022-10-01T07:20:23.902Z,76.32
2022-10-01T07:23:00.743Z,76.30
2022-10-01T07:25:33.223Z,76.16
2022-10-01T07:28:07.806Z,75.59
2022-10-01T07:30:59.426Z,74.81
2022-10-01T07:33:32.000Z,74.43
2022-10-01T07:36:07.626Z,74.66
2022-10-01T07:38:39.527Z,74.63
2022-10-01T07:41:12.194Z,73.87
2022-10-01T07:43:47.176Z,73.84
2022-10-01T07:46:19.318Z,72.36
2022-10-01T07:48:52.288Z,71.70
2022-10-01T07:51:27.335Z,72.46
2022-10-01T07:53:59.405Z,72.79
2022-10-01T07:56:31.486Z,71.83
2022-10-01T07:59:03.910Z,71.41
2022-10-01T08:01:36.613Z,71.48
2022-10-01T08:04:22.875Z,71.83
2022-10-01T08:06:57.234Z,71.12
2022-10-01T08:09:29.630Z,70.76
2022-10-01T08:12:02.529Z,70.51
2022-10-01T08:14:35.485Z,69.67
2022-10-01T08:17:07.842Z,69.60
2022-10-01T08:19:40.260Z,69.59
2022-10-01T08:22:12.404Z,69.08
2022-10-01T08:24:44.331Z,68.72
2022-10-01T08:27:17.332Z,68.82
2022-10-01T08:29:49.867Z,69.12
2022-10-01T08:32:23.383Z,68.71
2022-10-01T08:34:57.594Z,69.35
2022-10-01T08:37:30.448Z,69.44
2022-10-01T08:40:03.016Z,69.57
2022-10-01T08:42:50.123Z,68.99
2022-10-01T08:45:28.113Z,69.20
2022-10-01T08:48:06.882Z,68.82
2022-10-01T08:50:52.945Z,68.71
2022-10-01T08:53:35.151Z,68.41
2022-10-01T08:56:16.338Z,68.34
2022-10-01T08:58:54.619Z,68.07
2022-10-01T09:01:28.470Z,67.83
2022-10-01T09:04:01.742Z,68.28
2022-10-01T09:06:33.772Z,66.88
2022-10-01T09:09:34.154Z,67.32
2022-10-01T09:12:20.999Z,67.16
2022-10-01T09:15:17.917Z,69.83
2022-10-01T09:17:59.543Z,74.16
2022-10-01T09:20:37.501Z,70.39
2022-10-01T09:23:20.100Z,71.34
2022-10-01T09:25:53.358Z,69.21
2022-10-01T09:28:29.879Z,70.81
2022-10-01T09:31:13.565Z,70.04
2022-10-01T09:33:54.226Z,67.78
2022-10-01T09:36:34.377Z,65.03
2022-10-01T09:39:14.872Z,65.14
2022-10-01T09:41:48.456Z,65.04
2022-10-01T09:44:27.763Z,64.63
2022-10-01T09:46:59.970Z,63.92
2022-10-01T09:49:36.541Z,64.99
2022-10-01T09:52:15.751Z,64.50
2022-10-01T09:54:53.600Z,64.25
2022-10-01T09:57:31.609Z,63.77
2022-10-01T10:00:10.142Z,64.03
2022-10-01T10:02:49.282Z,64.58
2022-10-01T10:05:24.115Z,64.18
2022-10-01T10:07:59.351Z,64.39
2022-10-01T10:10:35.628Z,63.78
2022-10-01T10:13:24.416Z,63.66
2022-10-01T10:15:58.775Z,64.56
2022-10-01T10:18:35.588Z,63.96
2022-10-01T10:21:14.668Z,63.88
2022-10-01T10:23:54.852Z,64.78
2022-10-01T10:30:54.780Z,65.12
2022-10-01T10:33:27.725Z,65.50
2022-10-01T10:36:03.800Z,63.73
2022-10-01T10:38:38.512Z,64.17
2022-10-01T10:41:19.687Z,64.66
2022-10-01T10:43:52.114Z,64.50
2022-10-01T10:46:29.789Z,64.40
2022-10-01T10:49:07.388Z,64.69
2022-10-01T10:51:54.079Z,65.50
2022-10-01T10:54:32.885Z,65.30
2022-10-01T10:57:27.926Z,65.50
2022-10-01T11:00:02.065Z,66.35
2022-10-01T11:02:35.516Z,65.33
2022-10-01T11:05:20.765Z,64.63
2022-10-01T11:07:57.876Z,64.29
2022-10-01T11:10:43.497Z,64.60
2022-10-01T11:13:49.760Z,64.55
2022-10-01T11:17:05.990Z,64.76
2022-10-01T11:19:58.678Z,64.94
2022-10-01T11:22:43.209Z,64.80
2022-10-01T11:25:27.947Z,64.42
2022-10-01T11:28:13.371Z,62.64
2022-10-01T11:30:54.982Z,63.00
2022-10-01T11:33:40.904Z,62.42
2022-10-01T11:39:39.082Z,62.18
2022-10-01T11:42:59.916Z,62.43
2022-10-01T11:46:03.195Z,62.69
2022-10-01T11:54:05.334Z,63.31
2022-10-01T11:57:18.879Z,63.22
2022-10-01T12:00:27.330Z,63.20
2022-10-01T12:03:38.297Z,62.79
2022-10-01T12:06:26.220Z,62.08
2022-10-01T12:09:10.670Z,61.45
2022-10-01T12:11:52.927Z,61.00
2022-10-01T12:14:48.652Z,60.73
2022-10-01T12:17:34.908Z,60.93
2022-10-01T12:20:21.852Z,61.52
2022-10-01T12:22:57.990Z,60.89
2022-10-01T12:25:40.325Z,61.06
2022-10-01T12:28:17.621Z,61.29
2022-10-01T12:30:58.285Z,61.29
2022-10-01T12:34:00.350Z,61.57
2022-10-01T12:36:47.669Z,61.55
2022-10-01T12:39:37.639Z,61.38
2022-10-01T12:42:31.840Z,61.66
2022-10-01T12:45:20.458Z,61.39
2022-10-01T12:48:01.942Z,61.80
2022-10-01T12:50:45.559Z,62.72
2022-10-01T12:53:40.336Z,62.55
2022-10-01T12:56:27.695Z,61.67
2022-10-01T12:59:15.447Z,62.99
2022-10-01T13:02:00.130Z,62.58
2022-10-01T13:04:50.743Z,62.67
2022-10-01T13:07:42.759Z,63.12
2022-10-01T13:10:26.089Z,62.60
2022-10-01T13:13:08.364Z,62.82
2022-10-01T13:15:44.655Z,62.65
2022-10-01T13:18:27.138Z,62.76
2022-10-01T13:21:07.128Z,61.70
2022-10-01T13:23:47.273Z,62.78
2022-10-01T13:26:26.948Z,62.32
2022-10-01T13:29:08.408Z,61.50
2022-10-01T13:31:55.181Z,62.21
2022-10-01T13:34:35.800Z,61.99
2022-10-01T13:37:16.900Z,62.23
2022-10-01T13:39:49.980Z,62.31
2022-10-01T13:42:27.551Z,62.32
2022-10-01T13:45:02.397Z,62.47
2022-10-01T13:47:40.996Z,62.42
2022-10-01T13:50:24.880Z,61.16
2022-10-01T13:53:08.801Z,60.68
2022-10-01T13:55:44.979Z,59.11
2022-10-01T13:58:33.583Z,58.28
2022-10-01T14:01:13.867Z,58.29
2022-10-01T14:03:53.988Z,58.23
2022-10-01T14:06:30.926Z,59.50
2022-10-01T14:09:14.428Z,59.54
2022-10-01T14:12:07.072Z,59.32
2022-10-01T14:14:59.210Z,58.84
2022-10-01T14:17:35.051Z,59.02
2022-10-01T14:20:09.171Z,58.50
2022-10-01T14:23:04.030Z,58.98
2022-10-01T14:25:43.657Z,60.15
2022-10-01T14:28:29.140Z,61.80
2022-10-01T14:31:09.196Z,63.61
2022-10-01T14:33:59.687Z,65.68
2022-10-01T14:36:35.274Z,68.33
2022-10-01T14:39:19.365Z,68.92
2022-10-01T14:41:53.811Z,69.30
2022-10-01T14:44:28.960Z,69.92
2022-10-01T14:51:26.448Z,71.66
2022-10-01T14:54:01.388Z,71.89
2022-10-01T14:54:16.880Z,71.02
2022-10-01T14:56:35.869Z,72.81
2022-10-01T14:59:15.038Z,72.68
2022-10-01T15:02:01.478Z,72.40
2022-10-01T15:05:40.471Z,73.30
2022-10-01T15:17:37.958Z,75.05
2022-10-01T15:20:14.247Z,75.31
2022-10-01T15:22:49.343Z,75.28
2022-10-01T15:25:25.995Z,75.08
2022-10-01T15:27:59.434Z,75.04
2022-10-01T15:30:31.954Z,75.30
2022-10-01T15:33:04.682Z,75.99
2022-10-01T15:35:36.868Z,76.64
2022-10-01T15:38:24.709Z,76.45
2022-10-01T15:41:31.645Z,77.06
2022-10-01T15:44:07.700Z,77.59
2022-10-01T15:55:41.496Z,77.97
2022-10-01T15:56:05.671Z,78.10
2022-10-01T15:58:18.248Z,77.75
2022-10-01T16:04:45.461Z,78.05
2022-10-01T16:07:39.676Z,78.39
2022-10-01T16:10:38.953Z,78.33
2022-10-01T16:13:41.717Z,78.26
2022-10-01T17:08:11.329Z,79.11
2022-10-01T17:24:00.585Z,78.66
2022-10-01T17:30:44.060Z,79.38
2022-10-01T17:55:46.917Z,81.21
2022-10-01T17:58:16.923Z,81.09
2022-10-01T18:00:45.522Z,81.35
2022-10-01T18:03:17.568Z,81.51
2022-10-01T18:05:46.788Z,81.42
2022-10-01T18:08:15.485Z,81.50
2022-10-01T18:10:44.212Z,82.31
2022-10-01T18:13:15.242Z,82.51
2022-10-01T18:15:53.277Z,82.65
2022-10-01T18:22:13.919Z,82.69
2022-10-01T18:25:07.327Z,82.33
2022-10-01T18:29:03.315Z,82.77
2022-10-01T18:40:41.424Z,80.66
2022-10-01T18:55:21.381Z,81.75
2022-10-01T18:58:09.188Z,81.32
2022-10-01T19:40:06.975Z,80.66
2022-10-01T19:42:42.105Z,80.25
2022-10-01T19:45:20.516Z,80.05
2022-10-01T19:48:03.991Z,79.74
2022-10-01T19:50:38.056Z,80.02
2022-10-01T19:53:20.848Z,80.08
2022-10-01T19:56:04.731Z,79.82
2022-10-01T19:59:24.428Z,80.62
2022-10-01T20:02:22.664Z,80.40
2022-10-01T20:05:04.584Z,80.00
2022-10-01T20:08:39.397Z,79.72
2022-10-01T20:21:43.851Z,79.53
2022-10-01T20:25:14.500Z,79.67
2022-10-01T20:32:29.987Z,79.27
2022-10-01T20:35:26.655Z,79.27
2022-10-01T21:00:57.212Z,80.90
2022-10-01T21:33:14.167Z,80.85
